Time;durP1;ratioP1;P1;durP2;ratioP2;P2;SDS_P1;SDS_P2;PMS_P1;PMS_P2;Temp;Humidity;BMP_temperature;BMP_pressure;BME280_temperature;BME280_humidity;BME280_pressure;Samples;Min_cycle;Max_cycle;Signal;HPM_P1;HPM_P2
2021/04/08 00:01:32;;;;;;;;;;;23.90;44.80;;;;;;1535796;75;1128;-66
2021/04/08 00:03:34;;;;;;;;;;;23.90;44.90;;;;;;1539265;75;738;-65
2021/04/08 00:05:36;;;;;;;;;;;24.00;44.90;;;;;;1543734;75;666;-66
2021/04/08 00:07:38;;;;;;;;;;;23.90;44.80;;;;;;1535117;75;773;-67
2021/04/08 00:09:40;;;;;;;;;;;24.00;44.70;;;;;;1539223;77;728;-64
2021/04/08 00:11:41;;;;;;;;;;;24.00;44.70;;;;;;1542437;75;1142;-61
2021/04/08 00:13:43;;;;;;;;;;;24.00;44.60;;;;;;1546684;75;683;-64
2021/04/08 00:15:45;;;;;;;;;;;24.00;44.70;;;;;;1543152;75;841;-65
2021/04/08 00:17:47;;;;;;;;;;;24.00;44.70;;;;;;1549424;75;1938;-65
2021/04/08 00:19:49;;;;;;;;;;;24.00;44.60;;;;;;1536306;75;880;-65
2021/04/08 00:21:51;;;;;;;;;;;24.00;44.60;;;;;;1540755;75;1117;-65
2021/04/08 00:23:53;;;;;;;;;;;24.00;44.70;;;;;;1532677;75;774;-67
2021/04/08 00:25:55;;;;;;;;;;;24.00;44.60;;;;;;1537823;75;739;-65
2021/04/08 00:27:57;;;;;;;;;;;24.00;44.80;;;;;;1535612;75;765;-66
2021/04/08 00:29:59;;;;;;;;;;;23.90;44.80;;;;;;1541721;75;933;-66
2021/04/08 00:32:00;;;;;;;;;;;24.00;44.90;;;;;;1544545;76;1131;-66
2021/04/08 00:34:02;;;;;;;;;;;24.00;44.70;;;;;;1550559;75;773;-66
2021/04/08 00:36:04;;;;;;;;;;;24.00;44.70;;;;;;1546163;76;780;-66
2021/04/08 00:38:06;;;;;;;;;;;24.00;44.70;;;;;;1535719;75;1931;-66
2021/04/08 00:40:10;;;;;;;;;;;23.90;44.60;;;;;;1546799;76;744;-67
2021/04/08 00:42:12;;;;;;;;;;;24.00;44.50;;;;;;1535451;76;1755;-67
2021/04/08 00:44:13;;;;;;;;;;;24.00;44.50;;;;;;1550715;76;804;-67
2021/04/08 00:46:15;;;;;;;;;;;24.00;44.70;;;;;;1545721;75;747;-65
2021/04/08 00:48:17;;;;;;;;;;;24.00;44.60;;;;;;1543943;75;749;-68
2021/04/08 00:50:19;;;;;;;;;;;24.00;44.60;;;;;;1541574;75;721;-67
2021/04/08 00:52:21;;;;;;;;;;;24.00;44.50;;;;;;1539774;76;1142;-68
2021/04/08 00:54:23;;;;;;;;;;;24.00;44.40;;;;;;1542773;75;861;-68
2021/04/08 00:56:25;;;;;;;;;;;24.00;44.40;;;;;;1544283;75;832;-68
2021/04/08 00:58:27;;;;;;;;;;;24.00;44.40;;;;;;1545232;76;1939;-67
2021/04/08 01:00:29;;;;;;;;;;;24.00;44.30;;;;;;1543696;75;885;-67
2021/04/08 01:02:31;;;;;;;;;;;24.00;44.30;;;;;;1546344;75;1137;-68
2021/04/08 01:04:33;;;;;;;;;;;24.00;44.40;;;;;;1547214;75;698;-68
2021/04/08 01:06:35;;;;;;;;;;;23.90;44.40;;;;;;1545406;75;806;-67
2021/04/08 01:08:37;;;;;;;;;;;23.90;44.50;;;;;;1540400;76;957;-67
2021/04/08 01:10:40;;;;;;;;;;;23.90;44.60;;;;;;1547711;76;771;-67
2021/04/08 01:12:42;;;;;;;;;;;23.80;44.80;;;;;;1543447;75;1137;-67
2021/04/08 01:14:44;;;;;;;;;;;23.80;44.60;;;;;;1555458;75;758;-68
2021/04/08 01:16:54;;;;;;;;;;;23.90;44.70;;;;;;1546283;75;813;-69
2021/04/08 01:19:14;;;;;;;;;;;23.90;44.70;;;;;;1543435;75;1928;-67
2021/04/08 01:21:23;;;;;;;;;;;23.90;44.50;;;;;;1535950;75;1146;-66
2021/04/08 01:23:43;;;;;;;;;;;24.00;44.40;;;;;;1540590;75;1123;-67
2021/04/08 01:25:50;;;;;;;;;;;23.90;44.50;;;;;;1546002;75;1929;-65
2021/04/08 01:27:53;;;;;;;;;;;23.90;44.50;;;;;;1543203;76;775;-65
2021/04/08 01:30:03;;;;;;;;;;;23.90;44.40;;;;;;1531823;76;1810;-66
2021/04/08 01:32:05;;;;;;;;;;;24.00;44.60;;;;;;1545717;75;1212;-66
2021/04/08 01:34:10;;;;;;;;;;;23.90;44.50;;;;;;1540391;75;741;-65
2021/04/08 01:36:19;;;;;;;;;;;24.00;44.50;;;;;;1544435;75;733;-65
2021/04/08 01:38:23;;;;;;;;;;;24.00;44.50;;;;;;1537848;75;1929;-66
2021/04/08 01:40:25;;;;;;;;;;;24.00;44.60;;;;;;1542885;76;1819;-66
2021/04/08 01:42:27;;;;;;;;;;;23.90;44.50;;;;;;1544682;75;1159;-66
2021/04/08 01:44:29;;;;;;;;;;;23.90;44.50;;;;;;1544755;75;964;-66
2021/04/08 01:46:31;;;;;;;;;;;23.90;44.60;;;;;;1543210;75;708;-64
2021/04/08 01:48:32;;;;;;;;;;;24.00;44.70;;;;;;1534898;76;738;-63
2021/04/08 01:50:34;;;;;;;;;;;23.90;44.70;;;;;;1539387;75;672;-65
2021/04/08 01:52:38;;;;;;;;;;;24.00;44.60;;;;;;1546623;75;1091;-65
2021/04/08 01:54:40;;;;;;;;;;;24.00;44.70;;;;;;1531068;76;721;-64
2021/04/08 01:56:42;;;;;;;;;;;24.00;44.60;;;;;;1535274;76;714;-64
2021/04/08 01:58:43;;;;;;;;;;;23.90;44.60;;;;;;1505449;77;1942;-64
2021/04/08 02:00:45;;;;;;;;;;;24.00;44.70;;;;;;1545205;75;729;-64
2021/04/08 02:02:49;;;;;;;;;;;24.00;44.40;;;;;;1505869;77;1135;-66
2021/04/08 02:04:51;;;;;;;;;;;24.00;44.50;;;;;;1505035;77;1853;-67
2021/04/08 02:06:53;;;;;;;;;;;24.00;44.50;;;;;;1512748;77;786;-68
2021/04/08 02:08:54;;;;;;;;;;;24.00;44.60;;;;;;1503864;77;744;-66
2021/04/08 02:10:56;;;;;;;;;;;24.00;44.60;;;;;;1538200;76;1124;-65
2021/04/08 02:12:58;;;;;;;;;;;24.00;44.70;;;;;;1538993;76;799;-66
2021/04/08 02:15:00;;;;;;;;;;;24.10;44.70;;;;;;1544144;76;816;-66
2021/04/08 02:17:02;;;;;;;;;;;24.10;44.70;;;;;;1534134;76;799;-64
2021/04/08 02:19:05;;;;;;;;;;;24.20;44.60;;;;;;1541503;75;1955;-65
2021/04/08 02:21:07;;;;;;;;;;;24.10;44.40;;;;;;1544964;75;1261;-64
2021/04/08 02:23:08;;;;;;;;;;;24.10;44.50;;;;;;1541198;75;723;-65
2021/04/08 02:25:11;;;;;;;;;;;24.10;44.50;;;;;;1535583;75;670;-65
2021/04/08 02:27:13;;;;;;;;;;;24.10;44.50;;;;;;1544721;75;662;-65
2021/04/08 02:29:15;;;;;;;;;;;24.20;44.40;;;;;;1543937;75;980;-65
2021/04/08 02:31:17;;;;;;;;;;;24.10;44.40;;;;;;1542554;75;1133;-65
2021/04/08 02:33:23;;;;;;;;;;;24.20;44.40;;;;;;1542561;75;745;-68
2021/04/08 02:35:25;;;;;;;;;;;24.20;44.40;;;;;;1542353;77;1825;-65
2021/04/08 02:37:27;;;;;;;;;;;24.10;44.40;;;;;;1540666;75;833;-65
2021/04/08 02:39:29;;;;;;;;;;;24.20;44.60;;;;;;1535923;76;1956;-65
2021/04/08 02:41:31;;;;;;;;;;;24.00;44.50;;;;;;1533110;76;1149;-66
2021/04/08 02:43:33;;;;;;;;;;;24.00;44.70;;;;;;1533476;76;796;-67
2021/04/08 02:45:35;;;;;;;;;;;24.00;44.60;;;;;;1540687;76;788;-65
2021/04/08 02:47:37;;;;;;;;;;;24.00;44.70;;;;;;1536160;76;770;-65
2021/04/08 02:49:38;;;;;;;;;;;23.90;44.70;;;;;;1507687;77;739;-65
2021/04/08 02:51:42;;;;;;;;;;;24.00;44.70;;;;;;1503693;77;1196;-65
2021/04/08 02:53:48;;;;;;;;;;;24.00;44.80;;;;;;1529415;76;715;-66
2021/04/08 02:55:51;;;;;;;;;;;23.90;44.90;;;;;;1509741;77;795;-65
2021/04/08 02:57:55;;;;;;;;;;;23.80;44.90;;;;;;1537525;75;1939;-65
2021/04/08 03:00:01;;;;;;;;;;;23.80;45.00;;;;;;1533553;75;701;-65
2021/04/08 03:02:04;;;;;;;;;;;23.80;44.90;;;;;;1533179;76;2252;-65
2021/04/08 03:04:06;;;;;;;;;;;23.80;44.90;;;;;;1534464;75;756;-67
2021/04/08 03:06:08;;;;;;;;;;;23.80;45.00;;;;;;1506461;77;766;-66
2021/04/08 03:08:11;;;;;;;;;;;23.80;44.90;;;;;;1500212;77;771;-65
2021/04/08 03:10:14;;;;;;;;;;;23.70;45.00;;;;;;1500741;77;641;-66
2021/04/08 03:12:16;;;;;;;;;;;23.70;45.00;;;;;;1512511;77;1148;-64
2021/04/08 03:14:17;;;;;;;;;;;23.60;45.00;;;;;;1517306;77;809;-66
2021/04/08 03:16:21;;;;;;;;;;;23.60;45.00;;;;;;1500114;77;755;-68
2021/04/08 03:18:23;;;;;;;;;;;23.70;45.00;;;;;;1507441;77;2047;-68
2021/04/08 03:20:25;;;;;;;;;;;23.70;45.00;;;;;;1508562;77;817;-67
2021/04/08 03:22:27;;;;;;;;;;;23.60;45.00;;;;;;1537296;76;1122;-67
2021/04/08 03:24:29;;;;;;;;;;;23.60;45.10;;;;;;1535423;76;782;-67
2021/04/08 03:26:30;;;;;;;;;;;23.60;45.00;;;;;;1530575;76;739;-67
2021/04/08 03:28:32;;;;;;;;;;;23.60;45.10;;;;;;1533040;76;885;-68
2021/04/08 03:30:40;;;;;;;;;;;23.60;45.10;;;;;;1531883;76;894;-70
2021/04/08 03:32:38;;;;;;;;;;;23.60;45.10;;;;;;1532436;76;1639;-68
2021/04/08 03:34:40;;;;;;;;;;;23.60;45.10;;;;;;1533140;76;797;-67
2021/04/08 03:36:42;;;;;;;;;;;23.50;45.20;;;;;;1532540;76;709;-68
2021/04/08 03:38:43;;;;;;;;;;;23.50;45.10;;;;;;1524408;76;1954;-67
2021/04/08 03:40:46;;;;;;;;;;;23.60;45.10;;;;;;1498938;77;672;-66
2021/04/08 03:42:49;;;;;;;;;;;23.50;45.10;;;;;;1509515;77;1145;-67
2021/04/08 03:44:51;;;;;;;;;;;23.50;45.00;;;;;;1541590;75;666;-67
2021/04/08 03:46:55;;;;;;;;;;;23.60;45.00;;;;;;1535676;76;655;-68
2021/04/08 03:48:57;;;;;;;;;;;23.50;45.20;;;;;;1540933;75;786;-67
2021/04/08 03:50:58;;;;;;;;;;;23.50;45.10;;;;;;1533966;75;1175;-67
2021/04/08 03:53:00;;;;;;;;;;;23.50;45.10;;;;;;1533672;77;792;-66
2021/04/08 03:55:03;;;;;;;;;;;23.50;45.20;;;;;;1542907;76;797;-67
2021/04/08 03:57:06;;;;;;;;;;;23.50;45.20;;;;;;1542039;76;862;-63
2021/04/08 03:59:08;;;;;;;;;;;23.50;45.30;;;;;;1537526;75;1945;-66
2021/04/08 04:03:15;;;;;;;;;;;23.50;45.20;;;;;;1547589;75;632;-71
2021/04/08 04:05:17;;;;;;;;;;;23.50;45.20;;;;;;1538361;75;734;-67
2021/04/08 04:07:20;;;;;;;;;;;23.50;45.20;;;;;;1541169;75;703;-69
2021/04/08 04:09:22;;;;;;;;;;;23.50;45.20;;;;;;1542092;75;734;-68
2021/04/08 04:11:24;;;;;;;;;;;23.50;45.40;;;;;;1551259;75;1195;-67
2021/04/08 04:13:26;;;;;;;;;;;23.50;45.30;;;;;;1536765;76;812;-66
2021/04/08 04:15:28;;;;;;;;;;;23.50;45.30;;;;;;1538821;76;748;-67
2021/04/08 04:17:30;;;;;;;;;;;23.50;45.40;;;;;;1554458;75;783;-67
2021/04/08 04:19:32;;;;;;;;;;;23.50;45.30;;;;;;1548301;75;1939;-68
2021/04/08 04:21:34;;;;;;;;;;;23.50;45.10;;;;;;1548387;75;1188;-68
2021/04/08 04:23:36;;;;;;;;;;;23.50;45.20;;;;;;1523760;77;765;-68
2021/04/08 04:25:38;;;;;;;;;;;23.50;45.30;;;;;;1525083;76;717;-67
2021/04/08 04:27:40;;;;;;;;;;;23.50;45.20;;;;;;1526729;75;731;-68
2021/04/08 04:29:42;;;;;;;;;;;23.40;45.20;;;;;;1532427;75;795;-68
2021/04/08 04:31:44;;;;;;;;;;;23.40;45.00;;;;;;1530291;76;1225;-68
2021/04/08 04:33:46;;;;;;;;;;;23.50;45.10;;;;;;1519777;76;802;-69
2021/04/08 04:35:48;;;;;;;;;;;23.50;45.00;;;;;;1527430;76;952;-69
2021/04/08 04:37:50;;;;;;;;;;;23.50;45.20;;;;;;1521651;76;756;-72
2021/04/08 04:39:52;;;;;;;;;;;23.50;45.20;;;;;;1524966;76;1949;-72
2021/04/08 04:41:54;;;;;;;;;;;23.50;45.20;;;;;;1529043;76;1163;-72
2021/04/08 04:43:56;;;;;;;;;;;23.50;45.20;;;;;;1527076;75;729;-69
2021/04/08 04:45:58;;;;;;;;;;;23.50;45.30;;;;;;1526350;76;813;-70
2021/04/08 04:47:59;;;;;;;;;;;23.50;45.20;;;;;;1523496;76;974;-70
2021/04/08 04:50:01;;;;;;;;;;;23.50;45.20;;;;;;1519872;75;855;-69
2021/04/08 04:52:03;;;;;;;;;;;23.50;45.10;;;;;;1520706;76;1198;-69
2021/04/08 04:54:05;;;;;;;;;;;23.50;45.20;;;;;;1517767;75;709;-69
2021/04/08 04:56:07;;;;;;;;;;;23.50;45.10;;;;;;1523981;75;761;-69
2021/04/08 04:58:09;;;;;;;;;;;23.50;45.10;;;;;;1517445;77;762;-71
2021/04/08 05:00:11;;;;;;;;;;;23.50;45.10;;;;;;1534627;76;1921;-68
2021/04/08 05:02:13;;;;;;;;;;;23.50;45.20;;;;;;1521886;76;1109;-68
2021/04/08 05:04:15;;;;;;;;;;;23.50;45.20;;;;;;1529568;76;625;-71
2021/04/08 05:06:17;;;;;;;;;;;23.50;45.30;;;;;;1514876;76;798;-69
2021/04/08 05:08:19;;;;;;;;;;;23.50;45.30;;;;;;1530457;75;740;-70
2021/04/08 05:10:21;;;;;;;;;;;23.50;45.30;;;;;;1525981;75;787;-69
2021/04/08 05:12:23;;;;;;;;;;;23.50;45.40;;;;;;1525360;76;1177;-69
2021/04/08 05:14:24;;;;;;;;;;;23.40;45.20;;;;;;1533279;76;983;-69
2021/04/08 05:16:26;;;;;;;;;;;23.50;45.20;;;;;;1514900;75;821;-67
2021/04/08 05:18:28;;;;;;;;;;;23.50;45.20;;;;;;1522454;76;800;-71
2021/04/08 05:20:30;;;;;;;;;;;23.40;44.90;;;;;;1526944;76;1970;-70
2021/04/08 05:22:32;;;;;;;;;;;23.50;45.10;;;;;;1524152;76;1191;-68
2021/04/08 05:24:34;;;;;;;;;;;23.50;45.10;;;;;;1532796;76;757;-70
2021/04/08 05:26:36;;;;;;;;;;;23.50;45.20;;;;;;1525943;76;716;-70
2021/04/08 05:28:38;;;;;;;;;;;23.50;45.00;;;;;;1527094;76;739;-68
2021/04/08 05:30:39;;;;;;;;;;;23.60;44.90;;;;;;1524051;76;814;-69
2021/04/08 05:32:41;;;;;;;;;;;23.50;44.70;;;;;;1523931;76;1146;-69
2021/04/08 05:34:43;;;;;;;;;;;23.60;44.80;;;;;;1517761;76;824;-70
2021/04/08 05:36:45;;;;;;;;;;;23.60;44.80;;;;;;1522829;77;711;-69
2021/04/08 05:38:47;;;;;;;;;;;23.60;45.00;;;;;;1521727;77;730;-70
2021/04/08 05:40:49;;;;;;;;;;;23.60;44.70;;;;;;1524894;75;1942;-70
2021/04/08 05:42:51;;;;;;;;;;;23.60;44.50;;;;;;1519159;76;1135;-69
2021/04/08 05:44:52;;;;;;;;;;;23.70;44.40;;;;;;1524700;76;787;-69
2021/04/08 05:46:54;;;;;;;;;;;23.80;44.20;;;;;;1530411;76;709;-69
2021/04/08 05:48:56;;;;;;;;;;;23.80;44.20;;;;;;1514307;76;714;-70
2021/04/08 05:50:58;;;;;;;;;;;23.70;44.40;;;;;;1520004;75;784;-69
2021/04/08 05:53:00;;;;;;;;;;;23.70;44.40;;;;;;1532474;75;1123;-66
2021/04/08 05:55:02;;;;;;;;;;;23.70;44.40;;;;;;1522563;77;729;-66
2021/04/08 05:57:04;;;;;;;;;;;23.70;44.30;;;;;;1524881;76;774;-64
2021/04/08 05:59:06;;;;;;;;;;;23.80;44.20;;;;;;1528403;76;1941;-66
2021/04/08 06:01:08;;;;;;;;;;;23.90;43.90;;;;;;1524814;76;731;-66
2021/04/08 06:03:10;;;;;;;;;;;23.80;43.60;;;;;;1529873;76;1175;-66
2021/04/08 06:05:12;;;;;;;;;;;23.90;43.60;;;;;;1523724;75;746;-68
2021/04/08 06:07:14;;;;;;;;;;;23.90;43.50;;;;;;1529114;77;694;-68
2021/04/08 06:09:16;;;;;;;;;;;23.90;43.40;;;;;;1531730;76;776;-66
2021/04/08 06:11:18;;;;;;;;;;;23.90;43.40;;;;;;1516182;75;1154;-68
2021/04/08 06:13:20;;;;;;;;;;;23.90;43.40;;;;;;1538893;76;794;-67
2021/04/08 06:15:22;;;;;;;;;;;23.90;43.80;;;;;;1528808;76;827;-67
2021/04/08 06:17:24;;;;;;;;;;;23.90;44.30;;;;;;1523346;76;943;-67
2021/04/08 06:19:25;;;;;;;;;;;23.90;44.00;;;;;;1519098;76;1931;-66
2021/04/08 06:21:27;;;;;;;;;;;23.90;43.90;;;;;;1533295;76;1149;-68
2021/04/08 06:23:29;;;;;;;;;;;24.00;43.30;;;;;;1525291;76;796;-66
2021/04/08 06:25:31;;;;;;;;;;;24.00;43.00;;;;;;1528807;76;824;-68
2021/04/08 06:27:35;;;;;;;;;;;24.10;42.70;;;;;;1524670;76;830;-67
2021/04/08 06:29:37;;;;;;;;;;;24.10;42.60;;;;;;1522467;76;734;-67
2021/04/08 06:31:39;;;;;;;;;;;24.00;42.40;;;;;;1535369;76;1124;-68
2021/04/08 06:33:40;;;;;;;;;;;24.10;42.30;;;;;;1534859;76;728;-67
2021/04/08 06:35:42;;;;;;;;;;;24.10;41.60;;;;;;1526354;76;835;-69
2021/04/08 06:37:44;;;;;;;;;;;24.00;42.00;;;;;;1535487;76;780;-67
2021/04/08 06:39:47;;;;;;;;;;;24.00;42.00;;;;;;1531278;76;1961;-70
2021/04/08 06:41:50;;;;;;;;;;;24.00;42.00;;;;;;1523893;76;1215;-74
2021/04/08 06:43:52;;;;;;;;;;;23.90;42.20;;;;;;1514734;77;717;-70
2021/04/08 06:45:54;;;;;;;;;;;23.90;42.50;;;;;;1528171;75;675;-70
2021/04/08 06:48:03;;;;;;;;;;;23.80;42.40;;;;;;1525282;77;620;-69
2021/04/08 06:50:05;;;;;;;;;;;23.80;42.40;;;;;;1529624;76;690;-69
2021/04/08 06:52:07;;;;;;;;;;;23.80;42.50;;;;;;1534255;76;1170;-69
2021/04/08 06:54:09;;;;;;;;;;;23.90;42.40;;;;;;1523873;75;653;-69
2021/04/08 06:56:11;;;;;;;;;;;23.90;42.20;;;;;;1529641;75;757;-70
2021/04/08 06:58:13;;;;;;;;;;;23.90;42.20;;;;;;1520717;76;723;-69
2021/04/08 07:00:17;;;;;;;;;;;24.00;42.00;;;;;;1522024;76;1937;-72
2021/04/08 07:02:19;;;;;;;;;;;24.00;42.10;;;;;;1521934;77;1169;-71
2021/04/08 07:04:21;;;;;;;;;;;23.90;42.20;;;;;;1528698;76;790;-70
2021/04/08 07:06:23;;;;;;;;;;;23.90;42.20;;;;;;1521129;76;829;-69
2021/04/08 07:08:28;;;;;;;;;;;23.90;42.10;;;;;;1531108;76;763;-72
2021/04/08 07:10:28;;;;;;;;;;;23.90;42.20;;;;;;1528122;76;1686;-69
2021/04/08 07:12:30;;;;;;;;;;;23.90;42.20;;;;;;1535005;76;1150;-69
2021/04/08 07:14:32;;;;;;;;;;;23.90;42.30;;;;;;1523865;76;808;-70
2021/04/08 07:16:34;;;;;;;;;;;23.90;42.20;;;;;;1520611;76;824;-69
2021/04/08 07:18:36;;;;;;;;;;;23.90;42.20;;;;;;1525377;77;668;-72
2021/04/08 07:20:38;;;;;;;;;;;23.90;42.20;;;;;;1528274;76;1941;-70
2021/04/08 07:22:40;;;;;;;;;;;23.90;42.40;;;;;;1519300;77;1157;-72
2021/04/08 07:24:42;;;;;;;;;;;23.90;42.30;;;;;;1518090;76;737;-73
2021/04/08 07:27:00;;;;;;;;;;;23.90;42.40;;;;;;1525722;76;736;-70
2021/04/08 07:29:02;;;;;;;;;;;23.90;42.50;;;;;;1518947;76;799;-71
2021/04/08 07:31:23;;;;;;;;;;;23.70;42.60;;;;;;1527046;75;744;-67
2021/04/08 07:33:25;;;;;;;;;;;23.70;42.60;;;;;;1519444;75;755;-70
2021/04/08 07:35:29;;;;;;;;;;;23.80;42.60;;;;;;1515758;76;737;-70
2021/04/08 07:37:32;;;;;;;;;;;23.80;42.60;;;;;;1528419;76;1919;-74
2021/04/08 07:39:41;;;;;;;;;;;23.70;42.80;;;;;;1518252;76;1938;-68
2021/04/08 07:41:43;;;;;;;;;;;23.80;42.80;;;;;;1529193;76;1228;-72
2021/04/08 07:43:46;;;;;;;;;;;23.70;42.70;;;;;;1515788;77;752;-68
2021/04/08 07:45:48;;;;;;;;;;;23.70;42.80;;;;;;1522915;76;2109;-68
2021/04/08 07:47:55;;;;;;;;;;;23.70;42.80;;;;;;1524076;76;749;-68
2021/04/08 07:49:58;;;;;;;;;;;23.70;42.90;;;;;;1527887;76;1267;-68
2021/04/08 07:52:01;;;;;;;;;;;23.60;42.80;;;;;;1522705;76;1180;-71
2021/04/08 07:54:16;;;;;;;;;;;23.60;42.80;;;;;;1525151;75;1726;-69
2021/04/08 07:56:20;;;;;;;;;;;23.60;42.90;;;;;;1520074;76;892;-71
2021/04/08 07:58:21;;;;;;;;;;;23.60;42.90;;;;;;1514280;76;1858;-69
2021/04/08 08:00:34;;;;;;;;;;;23.60;43.00;;;;;;1527828;76;1941;-69
2021/04/08 08:02:38;;;;;;;;;;;23.60;43.10;;;;;;1518201;75;1955;-68
2021/04/08 08:04:39;;;;;;;;;;;23.50;43.20;;;;;;1514136;77;804;-67
2021/04/08 08:06:41;;;;;;;;;;;23.50;43.20;;;;;;1520913;76;762;-67
2021/04/08 08:08:45;;;;;;;;;;;23.50;43.30;;;;;;1523632;76;818;-68
2021/04/08 08:10:56;;;;;;;;;;;23.50;43.40;;;;;;1526221;76;759;-71
2021/04/08 08:12:58;;;;;;;;;;;23.50;43.40;;;;;;1519999;76;1182;-68
2021/04/08 08:15:14;;;;;;;;;;;23.50;43.50;;;;;;1514022;76;733;-68
2021/04/08 08:17:16;;;;;;;;;;;23.50;43.50;;;;;;1513754;76;1019;-66
2021/04/08 08:19:20;;;;;;;;;;;23.50;43.50;;;;;;1518875;76;708;-68
2021/04/08 08:21:24;;;;;;;;;;;23.40;43.40;;;;;;1532262;76;1947;-67
2021/04/08 08:23:36;;;;;;;;;;;23.50;43.50;;;;;;1526622;76;2014;-69
2021/04/08 08:25:38;;;;;;;;;;;23.40;43.40;;;;;;1523954;75;1675;-69
2021/04/08 08:27:44;;;;;;;;;;;23.50;43.60;;;;;;1526560;76;657;-70
2021/04/08 08:29:47;;;;;;;;;;;23.50;43.70;;;;;;1523911;75;660;-75
2021/04/08 08:31:59;;;;;;;;;;;23.40;43.80;;;;;;1524207;76;1158;-68
2021/04/08 08:34:03;;;;;;;;;;;23.50;44.00;;;;;;1522751;76;807;-68
2021/04/08 08:36:04;;;;;;;;;;;23.60;43.70;;;;;;1521244;75;1489;-68
2021/04/08 08:38:14;;;;;;;;;;;23.70;43.10;;;;;;1540594;76;804;-67
2021/04/08 08:40:16;;;;;;;;;;;23.80;42.70;;;;;;1516296;76;1915;-65
2021/04/08 08:42:19;;;;;;;;;;;23.80;42.40;;;;;;1519205;76;1156;-67
2021/04/08 08:44:21;;;;;;;;;;;23.90;42.20;;;;;;1521128;76;1817;-68
2021/04/08 08:46:25;;;;;;;;;;;23.90;42.00;;;;;;1522196;76;841;-68
2021/04/08 08:48:26;;;;;;;;;;;23.90;41.80;;;;;;1522543;76;1526;-68
2021/04/08 08:50:28;;;;;;;;;;;23.90;41.70;;;;;;1538244;76;793;-68
2021/04/08 08:52:33;;;;;;;;;;;23.90;41.60;;;;;;1526490;76;1192;-67
2021/04/08 08:54:35;;;;;;;;;;;23.90;41.50;;;;;;1522254;76;797;-67
2021/04/08 08:56:37;;;;;;;;;;;23.90;41.30;;;;;;1530189;76;756;-66
2021/04/08 08:58:39;;;;;;;;;;;24.00;41.20;;;;;;1520154;76;745;-67
2021/04/08 09:00:40;;;;;;;;;;;23.90;41.10;;;;;;1525021;76;1937;-67
2021/04/08 09:02:43;;;;;;;;;;;24.00;41.00;;;;;;1523296;76;1163;-67
2021/04/08 09:04:45;;;;;;;;;;;23.90;41.00;;;;;;1535514;76;822;-67
2021/04/08 09:06:46;;;;;;;;;;;23.90;40.90;;;;;;1521296;76;1069;-66
2021/04/08 09:08:52;;;;;;;;;;;24.00;40.90;;;;;;1520918;76;765;-68
2021/04/08 09:10:53;;;;;;;;;;;23.90;40.80;;;;;;1523769;76;1549;-68
2021/04/08 09:12:55;;;;;;;;;;;23.90;40.70;;;;;;1526478;76;1153;-67
2021/04/08 09:14:57;;;;;;;;;;;23.90;40.70;;;;;;1534975;76;685;-68
2021/04/08 09:16:59;;;;;;;;;;;23.90;40.60;;;;;;1529625;76;787;-68
2021/04/08 09:19:02;;;;;;;;;;;23.90;40.60;;;;;;1517852;77;799;-68
2021/04/08 09:21:04;;;;;;;;;;;23.90;40.50;;;;;;1525257;76;1920;-68
2021/04/08 09:23:07;;;;;;;;;;;23.90;40.50;;;;;;1508653;77;1134;-68
2021/04/08 09:25:10;;;;;;;;;;;23.90;40.40;;;;;;1528891;76;758;-62
2021/04/08 09:27:12;;;;;;;;;;;23.90;40.10;;;;;;1523542;76;707;-62
2021/04/08 09:29:15;;;;;;;;;;;23.90;38.70;;;;;;1527615;76;734;-64
2021/04/08 09:31:23;;;;;;;;;;;23.80;38.40;;;;;;1518622;76;1802;-62
2021/04/08 09:33:45;;;;;;;;;;;23.80;38.00;;;;;;1528848;76;1542;-62
2021/04/08 09:35:47;;;;;;;;;;;23.70;35.40;;;;;;1519773;75;846;-62
2021/04/08 09:37:54;;;;;;;;;;;23.50;34.00;;;;;;1530006;76;796;-62
2021/04/08 09:39:56;;;;;;;;;;;23.40;33.80;;;;;;1522333;76;737;-62
2021/04/08 09:42:02;;;;;;;;;;;23.50;33.90;;;;;;1520666;75;1931;-63
2021/04/08 09:44:01;;;;;;;;;;;23.40;33.80;;;;;;1521560;75;1670;-62
2021/04/08 09:46:07;;;;;;;;;;;23.40;33.40;;;;;;1535655;76;748;-62
2021/04/08 09:48:09;;;;;;;;;;;23.50;33.10;;;;;;1528085;76;1063;-65
2021/04/08 09:50:13;;;;;;;;;;;23.40;32.60;;;;;;1528638;76;856;-62
2021/04/08 09:52:15;;;;;;;;;;;23.40;32.30;;;;;;1537545;75;1695;-62
2021/04/08 09:54:17;;;;;;;;;;;23.50;32.00;;;;;;1527031;76;783;-62
2021/04/08 09:56:19;;;;;;;;;;;23.40;31.80;;;;;;1531707;76;791;-64
2021/04/08 09:58:22;;;;;;;;;;;23.40;31.30;;;;;;1525491;77;813;-65
2021/04/08 10:00:24;;;;;;;;;;;23.40;31.40;;;;;;1522448;76;1908;-62
2021/04/08 10:02:27;;;;;;;;;;;23.40;31.80;;;;;;1534532;74;218620;-66
2021/04/08 10:04:29;;;;;;;;;;;23.30;31.70;;;;;;1528186;76;748;-65
2021/04/08 10:06:31;;;;;;;;;;;23.30;31.20;;;;;;1514162;77;737;-65
2021/04/08 10:08:37;;;;;;;;;;;23.30;30.80;;;;;;1530530;76;770;-66
2021/04/08 10:10:40;;;;;;;;;;;23.30;31.40;;;;;;1524656;76;777;-64
2021/04/08 10:12:42;;;;;;;;;;;23.30;31.10;;;;;;1543546;75;1207;-65
2021/04/08 10:14:43;;;;;;;;;;;23.30;30.90;;;;;;1553276;75;817;-68
2021/04/08 10:16:46;;;;;;;;;;;23.30;31.10;;;;;;1550045;75;659;-68
2021/04/08 10:18:47;;;;;;;;;;;23.30;32.00;;;;;;1556416;75;1269;-70
2021/04/08 10:20:50;;;;;;;;;;;23.30;32.10;;;;;;1554161;75;1928;-68
2021/04/08 10:22:52;;;;;;;;;;;23.30;32.20;;;;;;1555479;75;1194;-69
2021/04/08 10:24:54;;;;;;;;;;;23.30;32.60;;;;;;1551635;75;747;-69
2021/04/08 10:26:56;;;;;;;;;;;23.30;32.60;;;;;;1563362;75;808;-68
2021/04/08 10:28:59;;;;;;;;;;;23.30;32.20;;;;;;1562609;75;790;-64
2021/04/08 10:31:02;;;;;;;;;;;23.20;32.80;;;;;;1554653;75;714;-64
2021/04/08 10:33:19;;;;;;;;;;;23.30;32.50;;;;;;1555899;75;2028;-64
2021/04/08 10:35:26;;;;;;;;;;;23.30;34.00;;;;;;1558199;75;733;-64
2021/04/08 10:37:28;;;;;;;;;;;23.20;33.10;;;;;;1559894;75;1028;-65
2021/04/08 10:39:33;;;;;;;;;;;23.30;32.60;;;;;;1554493;75;673;-65
2021/04/08 10:41:35;;;;;;;;;;;23.20;32.10;;;;;;1556400;75;1942;-65
2021/04/08 10:43:37;;;;;;;;;;;23.20;31.80;;;;;;1562092;75;774;-65
2021/04/08 10:45:40;;;;;;;;;;;23.20;32.00;;;;;;1557221;75;761;-65
2021/04/08 10:47:42;;;;;;;;;;;23.20;31.50;;;;;;1563777;75;821;-65
2021/04/08 10:49:44;;;;;;;;;;;23.30;31.40;;;;;;1568234;75;735;-65
2021/04/08 10:51:46;;;;;;;;;;;23.30;31.50;;;;;;1564268;75;1192;-65
2021/04/08 10:53:49;;;;;;;;;;;23.30;31.60;;;;;;1566388;75;708;-67
2021/04/08 10:55:50;;;;;;;;;;;23.30;31.40;;;;;;1563762;75;773;-64
2021/04/08 10:57:52;;;;;;;;;;;23.30;31.40;;;;;;1550345;75;745;-67
2021/04/08 10:59:55;;;;;;;;;;;23.40;31.00;;;;;;1557126;75;772;-67
2021/04/08 11:01:58;;;;;;;;;;;23.30;30.90;;;;;;1560096;75;1940;-67
2021/04/08 11:04:06;;;;;;;;;;;23.30;31.00;;;;;;1559247;75;733;-65
2021/04/08 11:06:09;;;;;;;;;;;23.30;30.80;;;;;;1559101;75;718;-64
2021/04/08 11:08:11;;;;;;;;;;;23.30;30.70;;;;;;1539978;76;1166;-65
2021/04/08 11:10:13;;;;;;;;;;;23.30;30.60;;;;;;1561880;75;729;-65
2021/04/08 11:12:19;;;;;;;;;;;23.30;30.50;;;;;;1558654;75;1141;-65
2021/04/08 11:14:22;;;;;;;;;;;23.20;30.50;;;;;;1554879;75;1795;-64
2021/04/08 11:16:25;;;;;;;;;;;23.30;31.30;;;;;;1563709;75;1047;-65
2021/04/08 11:18:27;;;;;;;;;;;23.20;30.80;;;;;;1561897;75;753;-64
2021/04/08 11:20:38;;;;;;;;;;;23.20;30.60;;;;;;1568686;75;811;-65
2021/04/08 11:22:42;;;;;;;;;;;23.30;30.90;;;;;;1560039;75;1936;-65
2021/04/08 11:24:44;;;;;;;;;;;23.20;30.60;;;;;;1557444;75;1941;-66
2021/04/08 11:26:48;;;;;;;;;;;23.20;30.60;;;;;;1554783;75;797;-65
2021/04/08 11:28:53;;;;;;;;;;;23.20;30.40;;;;;;1559524;75;1865;-65
2021/04/08 11:30:55;;;;;;;;;;;23.20;30.20;;;;;;1558744;75;743;-65
2021/04/08 11:32:57;;;;;;;;;;;23.20;30.60;;;;;;1554038;75;1133;-66
2021/04/08 11:34:59;;;;;;;;;;;23.20;30.10;;;;;;1552816;75;912;-65
2021/04/08 11:37:01;;;;;;;;;;;23.20;31.20;;;;;;1555481;75;757;-65
2021/04/08 11:39:10;;;;;;;;;;;23.20;30.70;;;;;;1556635;75;700;-66
2021/04/08 11:41:11;;;;;;;;;;;23.20;30.80;;;;;;1556919;75;1943;-65
2021/04/08 11:43:24;;;;;;;;;;;23.20;31.10;;;;;;1564332;75;1119;-65
2021/04/08 11:45:30;;;;;;;;;;;23.30;30.90;;;;;;1556766;75;765;-64
2021/04/08 11:47:31;;;;;;;;;;;23.20;30.50;;;;;;1551360;75;937;-66
2021/04/08 11:49:33;;;;;;;;;;;23.30;30.30;;;;;;1551039;75;804;-67
2021/04/08 11:51:35;;;;;;;;;;;23.30;30.50;;;;;;1536303;76;1272;-63
2021/04/08 11:53:38;;;;;;;;;;;23.20;30.70;;;;;;1563361;75;742;-65
2021/04/08 11:55:41;;;;;;;;;;;23.20;30.50;;;;;;1551256;75;715;-69
2021/04/08 11:57:44;;;;;;;;;;;23.30;30.70;;;;;;1541311;75;751;-66
2021/04/08 11:59:46;;;;;;;;;;;23.20;30.50;;;;;;1551601;75;1672;-66
2021/04/08 12:01:49;;;;;;;;;;;23.20;30.80;;;;;;1558601;75;1948;-65
2021/04/08 12:03:51;;;;;;;;;;;23.20;31.60;;;;;;1543116;75;937;-65
2021/04/08 12:05:53;;;;;;;;;;;23.20;31.60;;;;;;1552361;75;806;-66
2021/04/08 12:07:55;;;;;;;;;;;23.20;32.30;;;;;;1550104;75;723;-66
2021/04/08 12:09:56;;;;;;;;;;;23.20;31.50;;;;;;1549760;75;849;-67
2021/04/08 12:11:58;;;;;;;;;;;23.20;31.00;;;;;;1552901;75;1147;-65
2021/04/08 12:14:04;;;;;;;;;;;23.20;30.70;;;;;;1548846;75;729;-66
2021/04/08 12:16:06;;;;;;;;;;;23.20;30.40;;;;;;1546220;75;750;-66